Back to Top

Language: 

My Weather Underground Personal Weather Station Historical Data with Graphs...

Delerius Weather Station Historical Data
Daily Summary for December 20, 2017 Units:  Metric    English   Both
« Previous Day
Next Day »
Daily Weekly Monthly Yearly Custom
  High: Low: Average:
Temperature: 13.1 °C 8.1 °C 10.3 °C
Dew Point: 10.9 °C 7.1 °C 9 °C
Humidity: 96 % 85 % 92 %
Wind Speed: 24.1 km/h 0 km/h 7.4 km/h
Wind Gust: 32.2 km/h - -
Wind:- - West
Pressure: 1034.4 hPa 1031 hPa -
Precipitation: 0 mm    
Historical Graphs
 
 
Tabular Data for December 20, 2017
Time Temperature Dew Point Pressure Wind Wind Speed Wind Gust Humidity Rainfall Rate (Hourly) solar Conditions
00:03 8.8 °C 8.1 °C 1032.1 hPa WSW 6.4 km/h 9.7 km/h 95 % 0 mm 0 W/m2
00:05 8.8 °C 8.1 °C 1032.1 hPa West 8 km/h 14.5 km/h 95 % 0 mm 0 W/m2
00:09 9 °C 8.2 °C 1032.1 hPa West 8 km/h 14.5 km/h 95 % 0 mm 0 W/m2
00:10 9.1 °C 8.3 °C 1032.1 hPa West 8 km/h 16.1 km/h 95 % 0 mm 0 W/m2
00:15 9.2 °C 8.4 °C 1032.1 hPa West 11.3 km/h 17.7 km/h 95 % 0 mm 0 W/m2
00:20 9.3 °C 8.6 °C 1032.1 hPa West 9.7 km/h 16.1 km/h 95 % 0 mm 0 W/m2
00:21 9.3 °C 8.6 °C 1032.1 hPa West 8 km/h 16.1 km/h 95 % 0 mm 0 W/m2
00:26 9.3 °C 8.6 °C 1032.1 hPa WSW 9.7 km/h 14.5 km/h 95 % 0 mm 0 W/m2
00:27 9.3 °C 8.6 °C 1032.1 hPa WSW 9.7 km/h 14.5 km/h 95 % 0 mm 0 W/m2
00:32 9.3 °C 8.4 °C 1031.7 hPa West 11.3 km/h 16.1 km/h 94 % 0 mm 0 W/m2
00:33 9.3 °C 8.4 °C 1031.7 hPa West 11.3 km/h 16.1 km/h 94 % 0 mm 0 W/m2
00:38 9.3 °C 8.4 °C 1031.7 hPa West 9.7 km/h 14.5 km/h 94 % 0 mm 0 W/m2
00:39 9.3 °C 8.4 °C 1032.1 hPa West 9.7 km/h 14.5 km/h 94 % 0 mm 0 W/m2
00:45 9.2 °C 8.3 °C 1031.7 hPa WNW 9.7 km/h 16.1 km/h 94 % 0 mm 0 W/m2
00:50 9.1 °C 8 °C 1031.7 hPa WNW 11.3 km/h 17.7 km/h 93 % 0 mm 0 W/m2
00:55 9.1 °C 8.2 °C 1031.7 hPa West 12.9 km/h 19.3 km/h 94 % 0 mm 0 W/m2
00:58 9.1 °C 8.2 °C 1031.7 hPa West 12.9 km/h 24.1 km/h 94 % 0 mm 0 W/m2
01:03 9.2 °C 8.3 °C 1031.7 hPa West 14.5 km/h 25.7 km/h 94 % 0 mm 0 W/m2
01:05 9.2 °C 8.3 °C 1031.7 hPa West 12.9 km/h 19.3 km/h 94 % 0 mm 0 W/m2
01:06 9.2 °C 8.3 °C 1031.7 hPa WNW 12.9 km/h 17.7 km/h 94 % 0 mm 0 W/m2
01:11 9.2 °C 8.1 °C 1031.7 hPa WNW 11.3 km/h 16.1 km/h 93 % 0 mm 0 W/m2
01:12 9.2 °C 8.1 °C 1031.7 hPa WNW 11.3 km/h 14.5 km/h 93 % 0 mm 0 W/m2
01:17 9.2 °C 8.3 °C 1031.7 hPa West 12.9 km/h 19.3 km/h 94 % 0 mm 0 W/m2
01:21 9.4 °C 8.5 °C 1031.7 hPa West 11.3 km/h 16.1 km/h 94 % 0 mm 0 W/m2
01:26 9.4 °C 8.5 °C 1031.7 hPa West 11.3 km/h 17.7 km/h 94 % 0 mm 0 W/m2
01:27 9.5 °C 8.6 °C 1031.7 hPa West 11.3 km/h 17.7 km/h 94 % 0 mm 0 W/m2
01:28 9.5 °C 8.6 °C 1031.7 hPa West 9.7 km/h 16.1 km/h 94 % 0 mm 0 W/m2
01:33 9.6 °C 8.7 °C 1032.1 hPa WSW 11.3 km/h 14.5 km/h 94 % 0 mm 0 W/m2
01:36 9.6 °C 8.7 °C 1032.1 hPa WSW 9.7 km/h 16.1 km/h 94 % 0 mm 0 W/m2
01:41 9.6 °C 8.7 °C 1032.1 hPa WSW 8 km/h 12.9 km/h 94 % 0 mm 0 W/m2
01:46 9.6 °C 8.5 °C 1031.7 hPa Calm   3.2 km/h 93 % 0 mm 0 W/m2
01:47 9.5 °C 8.4 °C 1032.1 hPa Calm   1.6 km/h 93 % 0 mm 0 W/m2
01:52 9.4 °C 8.3 °C 1032.1 hPa Calm     93 % 0 mm 0 W/m2
01:56 9.4 °C 8.3 °C 1031.7 hPa Calm     93 % 0 mm 0 W/m2
02:01 9.4 °C 8.3 °C 1031.7 hPa Calm   3.2 km/h 93 % 0 mm 0 W/m2
02:02 9.4 °C 8.3 °C 1031.7 hPa Calm   3.2 km/h 93 % 0 mm 0 W/m2
02:03 9.4 °C 8.3 °C 1031.7 hPa Calm     93 % 0 mm 0 W/m2
02:08 9.4 °C 8.3 °C 1031.7 hPa Calm     93 % 0 mm 0 W/m2
02:13 9.3 °C 8.2 °C 1031.7 hPa Calm   3.2 km/h 93 % 0 mm 0 W/m2
02:15 9.3 °C 8.2 °C 1031.7 hPa Calm   1.6 km/h 93 % 0 mm 0 W/m2
02:20 9.3 °C 8.2 °C 1031.7 hPa Calm   1.6 km/h 93 % 0 mm 0 W/m2
02:21 9.2 °C 8.1 °C 1031.7 hPa Calm   3.2 km/h 93 % 0 mm 0 W/m2
02:26 9.2 °C 8.1 °C 1031.7 hPa Calm   3.2 km/h 93 % 0 mm 0 W/m2
02:27 9.2 °C 8.1 °C 1031.7 hPa Calm   3.2 km/h 93 % 0 mm 0 W/m2
02:29 9.1 °C 8 °C 1031.7 hPa Calm   3.2 km/h 93 % 0 mm 0 W/m2
02:32 9.1 °C 8 °C 1031.7 hPa Calm     93 % 0 mm 0 W/m2
02:37 8.9 °C 7.8 °C 1031.7 hPa Calm     93 % 0 mm 0 W/m2
02:38 8.9 °C 7.8 °C 1031.7 hPa Calm     93 % 0 mm 0 W/m2
02:43 8.8 °C 7.6 °C 1031.7 hPa Calm     92 % 0 mm 0 W/m2
02:48 8.7 °C 7.6 °C 1031.7 hPa Calm     93 % 0 mm 0 W/m2
02:49 8.6 °C 7.6 °C 1031.7 hPa Calm     93 % 0 mm 0 W/m2
02:54 8.5 °C 7.4 °C 1031.7 hPa Calm     93 % 0 mm 0 W/m2
02:57 8.5 °C 7.4 °C 1031.7 hPa Calm     93 % 0 mm 0 W/m2
03:02 8.4 °C 7.3 °C 1031.7 hPa Calm     93 % 0 mm 0 W/m2
03:03 8.4 °C 7.3 °C 1031.4 hPa Calm     93 % 0 mm 0 W/m2
03:06 8.4 °C 7.3 °C 1031.7 hPa Calm     93 % 0 mm 0 W/m2
03:11 8.4 °C 7.3 °C 1031.7 hPa West 1.6 km/h 3.2 km/h 93 % 0 mm 0 W/m2
03:16 8.4 °C 7.5 °C 1031.7 hPa Calm   3.2 km/h 94 % 0 mm 0 W/m2
03:21 8.4 °C 7.5 °C 1031.7 hPa Calm   1.6 km/h 94 % 0 mm 0 W/m2
03:26 8.3 °C 7.4 °C 1031.7 hPa Calm   3.2 km/h 94 % 0 mm 0 W/m2
03:28 8.2 °C 7.1 °C 1031.7 hPa Calm   3.2 km/h 93 % 0 mm 0 W/m2
03:33 8.1 °C 7.2 °C 1031.7 hPa West 1.6 km/h 8 km/h 94 % 0 mm 0 W/m2
03:35 8.1 °C 7.2 °C 1031.7 hPa WNW 1.6 km/h 6.4 km/h 94 % 0 mm 0 W/m2
03:40 8.1 °C 7.2 °C 1031.7 hPa West 1.6 km/h 8 km/h 94 % 0 mm 0 W/m2
03:44 8.1 °C 7.2 °C 1031.4 hPa West 3.2 km/h 8 km/h 94 % 0 mm 0 W/m2
03:46 8.1 °C 7.2 °C 1031.4 hPa SW 1.6 km/h 6.4 km/h 94 % 0 mm 0 W/m2
03:51 8.1 °C 7.2 °C 1031.4 hPa Calm     94 % 0 mm 0 W/m2
03:53 8.1 °C 7.2 °C 1031.4 hPa Calm   3.2 km/h 94 % 0 mm 0 W/m2
03:58 8.2 °C 7.4 °C 1031.4 hPa West 3.2 km/h 8 km/h 95 % 0 mm 0 W/m2
04:03 8.3 °C 7.6 °C 1031.4 hPa WNW 6.4 km/h 11.3 km/h 95 % 0 mm 0 W/m2
04:07 8.7 °C 8.1 °C 1031.4 hPa WNW 6.4 km/h 9.7 km/h 96 % 0 mm 0 W/m2
04:08 8.7 °C 8.1 °C 1031.7 hPa WNW 8 km/h 12.9 km/h 96 % 0 mm 0 W/m2
04:13 9 °C 8.4 °C 1031.4 hPa WNW 6.4 km/h 11.3 km/h 96 % 0 mm 0 W/m2
04:15 9 °C 8.4 °C 1031.4 hPa WNW 4.8 km/h 8 km/h 96 % 0 mm 0 W/m2
04:20 9.2 °C 8.6 °C 1031.4 hPa NW 4.8 km/h 8 km/h 96 % 0 mm 0 W/m2
04:21 9.3 °C 8.7 °C 1031.4 hPa NW 4.8 km/h 8 km/h 96 % 0 mm 0 W/m2
04:26 9.4 °C 8.7 °C 1031.4 hPa WNW 3.2 km/h 8 km/h 95 % 0 mm 0 W/m2
04:28 9.4 °C 8.7 °C 1031.4 hPa WNW 1.6 km/h 6.4 km/h 95 % 0 mm 0 W/m2
04:33 9.4 °C 8.7 °C 1031.7 hPa NW 4.8 km/h 8 km/h 95 % 0 mm 0 W/m2
04:34 9.4 °C 8.7 °C 1031.7 hPa NW 3.2 km/h 8 km/h 95 % 0 mm 0 W/m2
04:37 9.4 °C 8.7 °C 1031.4 hPa NW 1.6 km/h 6.4 km/h 95 % 0 mm 0 W/m2
04:42 9.4 °C 8.7 °C 1031.7 hPa NW 1.6 km/h 4.8 km/h 95 % 0 mm 0 W/m2
04:47 9.2 °C 8.3 °C 1031.4 hPa WSW 1.6 km/h 6.4 km/h 94 % 0 mm 0 W/m2
04:50 9.2 °C 8.3 °C 1031.4 hPa West 1.6 km/h 6.4 km/h 94 % 0 mm 0 W/m2
04:55 9.1 °C 8.2 °C 1031.4 hPa Calm   4.8 km/h 94 % 0 mm 0 W/m2
04:57 9.1 °C 8.2 °C 1031.4 hPa WSW 1.6 km/h 11.3 km/h 94 % 0 mm 0 W/m2
05:02 9.1 °C 8.2 °C 1031.4 hPa SW 1.6 km/h 8 km/h 94 % 0 mm 0 W/m2
05:05 9.1 °C 8.2 °C 1031.4 hPa Calm   3.2 km/h 94 % 0 mm 0 W/m2
05:09 9 °C 8.1 °C 1031.4 hPa SW 1.6 km/h 8 km/h 94 % 0 mm 0 W/m2
05:14 9 °C 8.1 °C 1031.4 hPa WSW 3.2 km/h 8 km/h 94 % 0 mm 0 W/m2
05:15 9 °C 8.1 °C 1031.4 hPa WSW 3.2 km/h 8 km/h 94 % 0 mm 0 W/m2
05:20 9.1 °C 8.2 °C 1031.4 hPa Calm   1.6 km/h 94 % 0 mm 0 W/m2
05:21 9.1 °C 8.2 °C 1031 hPa Calm   1.6 km/h 94 % 0 mm 0 W/m2
05:26 9 °C 8.1 °C 1031 hPa WSW 1.6 km/h 8 km/h 94 % 0 mm 0 W/m2
05:30 9 °C 8.1 °C 1031 hPa Calm     94 % 0 mm 0 W/m2
05:31 8.9 °C 8 °C 1031.4 hPa Calm     94 % 0 mm 0 W/m2
05:36 8.9 °C 8 °C 1031.4 hPa Calm   1.6 km/h 94 % 0 mm 0 W/m2
05:38 8.8 °C 7.9 °C 1031.4 hPa Calm     94 % 0 mm 0 W/m2
05:43 8.8 °C 7.9 °C 1031.4 hPa Calm     94 % 0 mm 0 W/m2
05:44 8.8 °C 7.9 °C 1031.4 hPa Calm     94 % 0 mm 0 W/m2
05:49 8.8 °C 7.9 °C 1031.4 hPa WSW 1.6 km/h 9.7 km/h 94 % 0 mm 0 W/m2
05:50 8.8 °C 7.9 °C 1031.4 hPa West 3.2 km/h 9.7 km/h 94 % 0 mm 0 W/m2
05:51 8.8 °C 8.1 °C 1031.4 hPa WSW 3.2 km/h 9.7 km/h 95 % 0 mm 0 W/m2
05:56 9 °C 8.2 °C 1031.4 hPa Calm   1.6 km/h 95 % 0 mm 0 W/m2
05:57 9 °C 8.2 °C 1031.4 hPa Calm   1.6 km/h 95 % 0 mm 0 W/m2
06:00 9.1 °C 8.3 °C 1031.4 hPa WNW 3.2 km/h 8 km/h 95 % 0 mm 0 W/m2
06:03 9.2 °C 8.4 °C 1031.4 hPa WNW 6.4 km/h 11.3 km/h 95 % 0 mm 0 W/m2
06:08 9.4 °C 8.7 °C 1031.4 hPa West 12.9 km/h 20.9 km/h 95 % 0 mm 0 W/m2
06:09 9.5 °C 8.7 °C 1031.4 hPa West 9.7 km/h 17.7 km/h 95 % 0 mm 0 W/m2
06:14 9.7 °C 8.9 °C 1031.4 hPa West 8 km/h 11.3 km/h 95 % 0 mm 0 W/m2
06:19 9.8 °C 9.1 °C 1031.4 hPa WNW 9.7 km/h 12.9 km/h 95 % 0 mm 0 W/m2
06:22 9.9 °C 9.1 °C 1031.4 hPa WNW 12.9 km/h 17.7 km/h 95 % 0 mm 0 W/m2
06:24 10 °C 9.2 °C 1031.7 hPa WNW 9.7 km/h 17.7 km/h 95 % 0 mm 0 W/m2
06:29 10.1 °C 9.3 °C 1031.7 hPa West 11.3 km/h 16.1 km/h 95 % 0 mm 0 W/m2
06:31 10.1 °C 9.3 °C 1031.7 hPa WNW 9.7 km/h 14.5 km/h 95 % 0 mm 0 W/m2
06:33 10.1 °C 9.2 °C 1031.7 hPa West 9.7 km/h 14.5 km/h 94 % 0 mm 0 W/m2
06:37 10.1 °C 9.2 °C 1031.7 hPa West 11.3 km/h 17.7 km/h 94 % 0 mm 0 W/m2
06:42 10.1 °C 9.2 °C 1031.7 hPa WNW 6.4 km/h 14.5 km/h 94 % 0 mm 0 W/m2
06:47 10.1 °C 9.2 °C 1031.7 hPa West 4.8 km/h 9.7 km/h 94 % 0 mm 0 W/m2
06:49 10.1 °C 9.2 °C 1031.7 hPa WSW 4.8 km/h 9.7 km/h 94 % 0 mm 0 W/m2
06:54 10.1 °C 9.2 °C 1031.7 hPa West 8 km/h 9.7 km/h 94 % 0 mm 0 W/m2
06:55 10.1 °C 9 °C 1031.7 hPa West 8 km/h 11.3 km/h 93 % 0 mm 0 W/m2
07:00 10.1 °C 9 °C 1031.7 hPa West 9.7 km/h 14.5 km/h 93 % 0 mm 0 W/m2
07:01 10.1 °C 9 °C 1031.7 hPa West 9.7 km/h 14.5 km/h 93 % 0 mm 0 W/m2
07:06 10.1 °C 9 °C 1031.7 hPa WNW 12.9 km/h 19.3 km/h 93 % 0 mm 0 W/m2
07:07 10 °C 8.9 °C 1031.7 hPa West 14.5 km/h 20.9 km/h 93 % 0 mm 0 W/m2
07:11 10 °C 8.9 °C 1031.7 hPa WNW 14.5 km/h 22.5 km/h 93 % 0 mm 0 W/m2
07:12 9.9 °C 8.8 °C 1031.7 hPa WNW 14.5 km/h 22.5 km/h 93 % 0 mm 0 W/m2
07:17 9.9 °C 8.8 °C 1031.7 hPa WNW 16.1 km/h 22.5 km/h 93 % 0 mm 0 W/m2
07:18 9.9 °C 8.8 °C 1031.7 hPa WNW 16.1 km/h 22.5 km/h 93 % 0 mm 0 W/m2
07:23 9.9 °C 9 °C 1031.7 hPa WNW 17.7 km/h 25.7 km/h 94 % 0 mm 0 W/m2
07:29 9.9 °C 9 °C 1031.7 hPa WNW 17.7 km/h 22.5 km/h 94 % 0 mm 0 W/m2
07:33 9.9 °C 9 °C 1032.1 hPa WNW 16.1 km/h 22.5 km/h 94 % 0 mm 0 W/m2
07:37 10 °C 9.1 °C 1031.7 hPa West 16.1 km/h 19.3 km/h 94 % 0 mm 0 W/m2
07:41 10 °C 9.1 °C 1032.1 hPa West 12.9 km/h 20.9 km/h 94 % 0 mm 0 W/m2
07:42 10 °C 9.1 °C 1032.1 hPa West 12.9 km/h 20.9 km/h 94 % 0 mm 0 W/m2
07:47 10.1 °C 9 °C 1032.1 hPa West 12.9 km/h 20.9 km/h 93 % 0 mm 0 W/m2
07:49 10.1 °C 9 °C 1032.1 hPa West 12.9 km/h 20.9 km/h 93 % 0 mm 0 W/m2
07:53 10.1 °C 9 °C 1032.1 hPa West 11.3 km/h 17.7 km/h 93 % 0 mm 0 W/m2
07:58 10.1 °C 9 °C 1032.1 hPa West 9.7 km/h 14.5 km/h 93 % 0 mm 0 W/m2
08:01 10.1 °C 9 °C 1032.1 hPa West 8 km/h 16.1 km/h 93 % 0 mm 0 W/m2
08:06 10.1 °C 9 °C 1032.1 hPa West 8 km/h 14.5 km/h 93 % 0 mm 0 W/m2
08:08 10.1 °C 9 °C 1032.1 hPa West 11.3 km/h 17.7 km/h 93 % 0 mm 0 W/m2
08:10 10.1 °C 9 °C 1032.1 hPa West 11.3 km/h 17.7 km/h 93 % 0 mm 0 W/m2
08:14 10.1 °C 9 °C 1032.4 hPa West 11.3 km/h 17.7 km/h 93 % 0 mm 0 W/m2
08:19 10.1 °C 9 °C 1032.1 hPa WNW 11.3 km/h 16.1 km/h 93 % 0 mm 5 W/m2
08:21 10.1 °C 9 °C 1032.4 hPa WNW 9.7 km/h 14.5 km/h 93 % 0 mm 5 W/m2
08:26 10.1 °C 9 °C 1032.4 hPa WNW 11.3 km/h 14.5 km/h 93 % 0 mm 7 W/m2
08:27 10.1 °C 9 °C 1032.4 hPa WNW 11.3 km/h 14.5 km/h 93 % 0 mm 7 W/m2
08:32 10.1 °C 9 °C 1032.4 hPa WNW 9.7 km/h 12.9 km/h 93 % 0 mm 9 W/m2
08:34 10.1 °C 9 °C 1032.4 hPa WNW 9.7 km/h 12.9 km/h 93 % 0 mm 11 W/m2
08:39 10.1 °C 9 °C 1032.4 hPa WNW 6.4 km/h 11.3 km/h 93 % 0 mm 9 W/m2
08:41 10.1 °C 9 °C 1032.4 hPa WNW 8 km/h 11.3 km/h 93 % 0 mm 9 W/m2
08:45 10.1 °C 9 °C 1032.4 hPa WNW 6.4 km/h 11.3 km/h 93 % 0 mm 11 W/m2
08:49 10.1 °C 9 °C 1032.4 hPa WNW 4.8 km/h 9.7 km/h 93 % 0 mm 11 W/m2
08:51 10.1 °C 9 °C 1032.4 hPa WNW 4.8 km/h 9.7 km/h 93 % 0 mm 11 W/m2
08:56 10.1 °C 9 °C 1032.4 hPa WNW 4.8 km/h 8 km/h 93 % 0 mm 9 W/m2
08:58 10.1 °C 9 °C 1032.4 hPa WNW 3.2 km/h 8 km/h 93 % 0 mm 11 W/m2
09:02 10.1 °C 9 °C 1032.4 hPa Calm   1.6 km/h 93 % 0 mm 14 W/m2
09:07 10.1 °C 9 °C 1032.7 hPa West 1.6 km/h 3.2 km/h 93 % 0 mm 16 W/m2
09:08 10.1 °C 9 °C 1032.7 hPa West 1.6 km/h 3.2 km/h 93 % 0 mm 16 W/m2
09:13 10.1 °C 9 °C 1032.7 hPa East 1.6 km/h 4.8 km/h 93 % 0 mm 18 W/m2
09:14 10.1 °C 9 °C 1032.7 hPa East 1.6 km/h 3.2 km/h 93 % 0 mm 18 W/m2
09:17 10.1 °C 9 °C 1032.7 hPa Calm   1.6 km/h 93 % 0 mm 19 W/m2
09:22 10.1 °C 9 °C 1032.7 hPa Calm     93 % 0 mm 23 W/m2
09:23 10.1 °C 9 °C 1032.7 hPa Calm     93 % 0 mm 25 W/m2
09:28 10.1 °C 9 °C 1032.7 hPa Calm   3.2 km/h 93 % 0 mm 30 W/m2
09:33 10.1 °C 9 °C 1032.7 hPa Calm     93 % 0 mm 28 W/m2
09:34 10.1 °C 9 °C 1032.7 hPa Calm     93 % 0 mm 26 W/m2
09:35 10.1 °C 9 °C 1032.7 hPa Calm     93 % 0 mm 26 W/m2
09:40 10.1 °C 9 °C 1032.7 hPa Calm     93 % 0 mm 35 W/m2
09:41 10.1 °C 9 °C 1032.7 hPa Calm   1.6 km/h 93 % 0 mm 37 W/m2
09:46 10.2 °C 9.3 °C 1032.7 hPa Calm     94 % 0 mm 44 W/m2
09:48 10.2 °C 9.3 °C 1032.7 hPa Calm   1.6 km/h 94 % 0 mm 56 W/m2
09:53 10.2 °C 9.3 °C 1032.7 hPa Calm   1.6 km/h 94 % 0 mm 74 W/m2
09:54 10.2 °C 9.3 °C 1032.7 hPa Calm   1.6 km/h 94 % 0 mm 83 W/m2
09:59 10.2 °C 9.3 °C 1032.7 hPa Calm   3.2 km/h 94 % 0 mm 84 W/m2
10:04 10.4 °C 9.5 °C 1032.7 hPa WSW 8 km/h 9.7 km/h 94 % 0 mm 158 W/m2
10:05 10.4 °C 9.5 °C 1032.7 hPa WSW 8 km/h 11.3 km/h 94 % 0 mm 158 W/m2
10:06 10.4 °C 9.5 °C 1032.7 hPa WSW 8 km/h 11.3 km/h 94 % 0 mm 158 W/m2
10:11 10.7 °C 9.8 °C 1032.7 hPa West 11.3 km/h 14.5 km/h 94 % 0 mm 56 W/m2
10:12 10.7 °C 9.8 °C 1032.7 hPa West 11.3 km/h 19.3 km/h 94 % 0 mm 56 W/m2
10:13 10.7 °C 9.8 °C 1032.7 hPa WSW 11.3 km/h 19.3 km/h 94 % 0 mm 60 W/m2
10:18 10.9 °C 9.8 °C 1032.7 hPa West 11.3 km/h 16.1 km/h 93 % 0 mm 114 W/m2
10:21 11 °C 9.9 °C 1032.7 hPa WSW 9.7 km/h 12.9 km/h 93 % 0 mm 100 W/m2
10:26 11.1 °C 9.8 °C 1032.7 hPa West 9.7 km/h 14.5 km/h 92 % 0 mm 88 W/m2
10:27 11.1 °C 9.8 °C 1032.7 hPa West 9.7 km/h 14.5 km/h 92 % 0 mm 84 W/m2
10:32 11.2 °C 9.9 °C 1032.7 hPa West 9.7 km/h 12.9 km/h 92 % 0 mm 74 W/m2
10:37 11.2 °C 9.8 °C 1032.7 hPa West 12.9 km/h 22.5 km/h 91 % 0 mm 67 W/m2
10:42 11.3 °C 9.9 °C 1032.7 hPa West 14.5 km/h 20.9 km/h 91 % 0 mm 91 W/m2
10:46 11.3 °C 9.9 °C 1032.7 hPa WNW 14.5 km/h 22.5 km/h 91 % 0 mm 114 W/m2
10:48 11.3 °C 9.9 °C 1032.7 hPa WNW 12.9 km/h 17.7 km/h 91 % 0 mm 123 W/m2
10:53 11.4 °C 10 °C 1032.7 hPa WNW 9.7 km/h 12.9 km/h 91 % 0 mm 144 W/m2
10:55 11.4 °C 10 °C 1032.7 hPa West 11.3 km/h 16.1 km/h 91 % 0 mm 153 W/m2
11:00 11.5 °C 10.1 °C 1032.4 hPa West 9.7 km/h 16.1 km/h 91 % 0 mm 176 W/m2
11:01 11.5 °C 10.1 °C 1032.4 hPa West 8 km/h 12.9 km/h 91 % 0 mm 192 W/m2
11:06 11.7 °C 10.3 °C 1032.4 hPa West 9.7 km/h 16.1 km/h 91 % 0 mm 171 W/m2
11:07 11.7 °C 10.3 °C 1032.4 hPa WNW 9.7 km/h 12.9 km/h 91 % 0 mm 156 W/m2
11:12 11.8 °C 10.4 °C 1032.4 hPa West 9.7 km/h 12.9 km/h 91 % 0 mm 100 W/m2
11:14 11.8 °C 10.2 °C 1032.4 hPa WSW 9.7 km/h 14.5 km/h 90 % 0 mm 79 W/m2
11:15 11.8 °C 10.2 °C 1032.4 hPa WSW 9.7 km/h 14.5 km/h 90 % 0 mm 76 W/m2
11:20 11.8 °C 10.1 °C 1032.4 hPa West 11.3 km/h 16.1 km/h 89 % 0 mm 69 W/m2
11:22 11.8 °C 10.1 °C 1032.4 hPa WSW 9.7 km/h 14.5 km/h 89 % 0 mm 69 W/m2
11:27 11.8 °C 10.1 °C 1032.4 hPa West 14.5 km/h 20.9 km/h 89 % 0 mm 72 W/m2
11:28 11.8 °C 10.1 °C 1032.4 hPa West 14.5 km/h 20.9 km/h 89 % 0 mm 72 W/m2
11:33 11.8 °C 10.1 °C 1032.4 hPa West 12.9 km/h 19.3 km/h 89 % 0 mm 76 W/m2
11:34 11.8 °C 10.1 °C 1032.4 hPa West 12.9 km/h 19.3 km/h 89 % 0 mm 76 W/m2
11:39 11.8 °C 10.1 °C 1032.4 hPa West 9.7 km/h 17.7 km/h 89 % 0 mm 76 W/m2
11:44 11.9 °C 10.2 °C 1032.4 hPa West 11.3 km/h 20.9 km/h 89 % 0 mm 74 W/m2
11:45 11.9 °C 10.2 °C 1032.4 hPa West 14.5 km/h 20.9 km/h 89 % 0 mm 74 W/m2
11:50 11.9 °C 10.2 °C 1032.4 hPa West 16.1 km/h 20.9 km/h 89 % 0 mm 90 W/m2
11:51 11.9 °C 10.2 °C 1032.4 hPa West 16.1 km/h 20.9 km/h 89 % 0 mm 90 W/m2
11:52 11.9 °C 10.2 °C 1032.4 hPa West 16.1 km/h 20.9 km/h 89 % 0 mm 102 W/m2
11:56 11.9 °C 10.2 °C 1032.1 hPa West 14.5 km/h 22.5 km/h 89 % 0 mm 207 W/m2
11:59 11.9 °C 10.2 °C 1032.1 hPa West 12.9 km/h 19.3 km/h 89 % 0 mm 223 W/m2
12:04 12.1 °C 10.5 °C 1032.4 hPa West 12.9 km/h 17.7 km/h 90 % 0 mm 149 W/m2
12:05 12.2 °C 10.4 °C 1032.4 hPa West 14.5 km/h 19.3 km/h 89 % 0 mm 137 W/m2
12:07 12.2 °C 10.4 °C 1032.4 hPa WNW 14.5 km/h 22.5 km/h 89 % 0 mm 135 W/m2
12:13 12.3 °C 10.4 °C 1032.1 hPa West 11.3 km/h 17.7 km/h 88 % 0 mm 236 W/m2
12:14 12.3 °C 10.4 °C 1032.1 hPa WNW 11.3 km/h 19.3 km/h 88 % 0 mm 248 W/m2
12:19 12.4 °C 10.4 °C 1032.1 hPa West 9.7 km/h 14.5 km/h 88 % 0 mm 292 W/m2
12:20 12.5 °C 10.6 °C 1032.1 hPa WNW 11.3 km/h 14.5 km/h 88 % 0 mm 288 W/m2
12:25 12.8 °C 10.8 °C 1032.1 hPa WNW 8 km/h 19.3 km/h 88 % 0 mm 243 W/m2
12:26 12.8 °C 10.8 °C 1032.1 hPa WNW 11.3 km/h 17.7 km/h 88 % 0 mm 163 W/m2
12:31 12.9 °C 10.8 °C 1032.1 hPa WNW 16.1 km/h 29 km/h 87 % 0 mm 274 W/m2
12:32 13 °C 10.9 °C 1032.1 hPa WNW 16.1 km/h 29 km/h 87 % 0 mm 274 W/m2
12:35 13.1 °C 10.8 °C 1032.1 hPa WNW 16.1 km/h 25.7 km/h 86 % 0 mm 232 W/m2
12:38 13.1 °C 10.8 °C 1032.1 hPa WNW 14.5 km/h 24.1 km/h 86 % 0 mm 155 W/m2
12:41 13 °C 10.6 °C 1032.1 hPa West 14.5 km/h 24.1 km/h 85 % 0 mm 142 W/m2
12:43 12.9 °C 10.6 °C 1032.4 hPa West 14.5 km/h 20.9 km/h 86 % 0 mm 171 W/m2
12:48 12.9 °C 10.6 °C 1032.1 hPa West 14.5 km/h 22.5 km/h 86 % 0 mm 104 W/m2
12:54 12.7 °C 10.4 °C 1032.1 hPa West 19.3 km/h 30.6 km/h 86 % 0 mm 102 W/m2
12:57 12.6 °C 10.3 °C 1032.1 hPa West 24.1 km/h 32.2 km/h 86 % 0 mm 93 W/m2
13:02 12.4 °C 10.1 °C 1032.1 hPa West 19.3 km/h 29 km/h 86 % 0 mm 90 W/m2
13:05 12.3 °C 10.2 °C 1032.1 hPa West 19.3 km/h 30.6 km/h 87 % 0 mm 79 W/m2
13:07 12.3 °C 10.2 °C 1032.1 hPa West 19.3 km/h 30.6 km/h 87 % 0 mm 70 W/m2
13:12 12.2 °C 10.1 °C 1032.1 hPa West 19.3 km/h 29 km/h 87 % 0 mm 70 W/m2
13:18 12.1 °C 10.2 °C 1032.1 hPa West 16.1 km/h 24.1 km/h 88 % 0 mm 58 W/m2
13:23 12 °C 10.1 °C 1032.1 hPa WSW 14.5 km/h 22.5 km/h 88 % 0 mm 47 W/m2
13:28 11.9 °C 10.2 °C 1032.1 hPa WSW 11.3 km/h 17.7 km/h 89 % 0 mm 42 W/m2
13:29 11.9 °C 10.2 °C 1032.1 hPa WSW 11.3 km/h 17.7 km/h 89 % 0 mm 42 W/m2
13:34 11.9 °C 10.2 °C 1031.7 hPa WSW 9.7 km/h 12.9 km/h 89 % 0 mm 46 W/m2
13:35 11.9 °C 10.2 °C 1031.7 hPa WSW 9.7 km/h 14.5 km/h 89 % 0 mm 47 W/m2
13:40 11.9 °C 10.2 °C 1031.7 hPa WSW 9.7 km/h 14.5 km/h 89 % 0 mm 47 W/m2
13:42 11.9 °C 10.2 °C 1031.7 hPa WSW 9.7 km/h 14.5 km/h 89 % 0 mm 46 W/m2
13:43 11.8 °C 10.1 °C 1031.7 hPa WSW 9.7 km/h 12.9 km/h 89 % 0 mm 46 W/m2
13:47 11.8 °C 10.1 °C 1031.7 hPa WSW 11.3 km/h 16.1 km/h 89 % 0 mm 53 W/m2
13:50 11.8 °C 10.1 °C 1031.7 hPa WSW 9.7 km/h 16.1 km/h 89 % 0 mm 53 W/m2
13:52 11.8 °C 10.2 °C 1031.7 hPa WSW 9.7 km/h 14.5 km/h 90 % 0 mm 53 W/m2
13:57 11.8 °C 10.2 °C 1032.1 hPa West 14.5 km/h 17.7 km/h 90 % 0 mm 44 W/m2
13:59 11.8 °C 10.2 °C 1032.1 hPa West 9.7 km/h 17.7 km/h 90 % 0 mm 44 W/m2
14:04 11.8 °C 10.1 °C 1032.1 hPa WSW 11.3 km/h 19.3 km/h 89 % 0 mm 40 W/m2
14:06 11.8 °C 10.2 °C 1032.1 hPa WSW 9.7 km/h 17.7 km/h 90 % 0 mm 42 W/m2
14:11 11.8 °C 10.2 °C 1032.1 hPa West 11.3 km/h 16.1 km/h 90 % 0 mm 37 W/m2
14:14 11.8 °C 10.2 °C 1032.1 hPa West 11.3 km/h 12.9 km/h 90 % 0 mm 30 W/m2
14:18 11.8 °C 10.1 °C 1032.1 hPa West 12.9 km/h 17.7 km/h 89 % 0 mm 26 W/m2
14:19 11.8 °C 10.1 °C 1032.4 hPa WNW 11.3 km/h 14.5 km/h 89 % 0 mm 23 W/m2
14:24 11.8 °C 10.1 °C 1032.4 hPa WNW 16.1 km/h 25.7 km/h 89 % 0 mm 19 W/m2
14:25 11.8 °C 10.1 °C 1032.4 hPa WNW 16.1 km/h 25.7 km/h 89 % 0 mm 19 W/m2
14:30 11.8 °C 10.2 °C 1032.4 hPa WNW 16.1 km/h 22.5 km/h 90 % 0 mm 18 W/m2
14:32 11.8 °C 10.2 °C 1032.4 hPa WNW 16.1 km/h 24.1 km/h 90 % 0 mm 16 W/m2
14:37 11.7 °C 10.1 °C 1032.4 hPa West 14.5 km/h 24.1 km/h 90 % 0 mm 14 W/m2
14:42 11.7 °C 10.1 °C 1032.4 hPa WNW 11.3 km/h 16.1 km/h 90 % 0 mm 14 W/m2
14:47 11.6 °C 10 °C 1032.4 hPa WNW 14.5 km/h 20.9 km/h 90 % 0 mm 14 W/m2
14:49 11.6 °C 10 °C 1032.4 hPa WNW 12.9 km/h 20.9 km/h 90 % 0 mm 18 W/m2
14:54 11.6 °C 10 °C 1032.4 hPa WNW 9.7 km/h 14.5 km/h 90 % 0 mm 14 W/m2
14:55 11.6 °C 10 °C 1032.7 hPa WNW 11.3 km/h 16.1 km/h 90 % 0 mm 14 W/m2
15:00 11.5 °C 10.1 °C 1032.7 hPa WNW 8 km/h 16.1 km/h 91 % 0 mm 12 W/m2
15:05 11.4 °C 10 °C 1032.4 hPa WNW 9.7 km/h 16.1 km/h 91 % 0 mm 14 W/m2
15:10 11.4 °C 10 °C 1032.4 hPa WNW 9.7 km/h 16.1 km/h 91 % 0 mm 16 W/m2
15:14 11.4 °C 10 °C 1032.7 hPa WNW 4.8 km/h 9.7 km/h 91 % 0 mm 14 W/m2
15:15 11.4 °C 10 °C 1032.7 hPa NW 3.2 km/h 8 km/h 91 % 0 mm 14 W/m2
15:20 11.3 °C 9.9 °C 1032.7 hPa West 3.2 km/h 9.7 km/h 91 % 0 mm 12 W/m2
15:25 11.3 °C 9.9 °C 1032.7 hPa WNW 8 km/h 14.5 km/h 91 % 0 mm 11 W/m2
15:27 11.2 °C 9.8 °C 1032.7 hPa WNW 9.7 km/h 16.1 km/h 91 % 0 mm 11 W/m2
15:32 11.2 °C 9.8 °C 1033.1 hPa WNW 11.3 km/h 17.7 km/h 91 % 0 mm 7 W/m2
15:33 11.2 °C 9.8 °C 1033.1 hPa WNW 9.7 km/h 16.1 km/h 91 % 0 mm 7 W/m2
15:34 11.2 °C 9.8 °C 1033.1 hPa WNW 11.3 km/h 17.7 km/h 91 % 0 mm 7 W/m2
15:38 11.1 °C 9.7 °C 1033.1 hPa WNW 9.7 km/h 12.9 km/h 91 % 0 mm 5 W/m2
15:40 11.1 °C 9.7 °C 1033.1 hPa WNW 9.7 km/h 14.5 km/h 91 % 0 mm 0 W/m2
15:45 11.1 °C 9.7 °C 1033.1 hPa WNW 8 km/h 12.9 km/h 91 % 0 mm 0 W/m2
15:47 11.1 °C 9.7 °C 1033.1 hPa WNW 9.7 km/h 16.1 km/h 91 % 0 mm 0 W/m2
15:48 11.1 °C 9.7 °C 1033.1 hPa WNW 9.7 km/h 16.1 km/h 91 % 0 mm 0 W/m2
15:53 11 °C 9.6 °C 1033.1 hPa WNW 9.7 km/h 16.1 km/h 91 % 0 mm 0 W/m2
15:54 11.1 °C 9.7 °C 1033.1 hPa WNW 9.7 km/h 16.1 km/h 91 % 0 mm 0 W/m2
15:59 10.9 °C 9.5 °C 1033.1 hPa WNW 9.7 km/h 17.7 km/h 91 % 0 mm 0 W/m2
16:01 10.9 °C 9.7 °C 1033.1 hPa WNW 11.3 km/h 17.7 km/h 92 % 0 mm 0 W/m2
16:07 10.9 °C 9.7 °C 1033.1 hPa WNW 9.7 km/h 12.9 km/h 92 % 0 mm 0 W/m2
16:11 10.9 °C 9.7 °C 1033.1 hPa West 9.7 km/h 14.5 km/h 92 % 0 mm 0 W/m2
16:12 10.9 °C 9.7 °C 1033.1 hPa WNW 9.7 km/h 14.5 km/h 92 % 0 mm 0 W/m2
16:17 10.9 °C 9.7 °C 1033.1 hPa WNW 9.7 km/h 12.9 km/h 92 % 0 mm 0 W/m2
16:19 10.9 °C 9.7 °C 1033.1 hPa WNW 9.7 km/h 12.9 km/h 92 % 0 mm 0 W/m2
16:24 10.9 °C 9.7 °C 1033.1 hPa West 8 km/h 12.9 km/h 92 % 0 mm 0 W/m2
16:29 10.9 °C 9.7 °C 1033.1 hPa West 6.4 km/h 9.7 km/h 92 % 0 mm 0 W/m2
16:32 10.9 °C 9.7 °C 1033.1 hPa West 6.4 km/h 11.3 km/h 92 % 0 mm 0 W/m2
16:37 10.8 °C 9.6 °C 1033.1 hPa West 1.6 km/h 4.8 km/h 92 % 0 mm 0 W/m2
16:39 10.8 °C 9.6 °C 1033.1 hPa West 4.8 km/h 8 km/h 92 % 0 mm 0 W/m2
16:44 10.8 °C 9.6 °C 1033.4 hPa WSW 4.8 km/h 8 km/h 92 % 0 mm 0 W/m2
16:45 10.8 °C 9.6 °C 1033.4 hPa WSW 4.8 km/h 8 km/h 92 % 0 mm 0 W/m2
16:50 10.8 °C 9.6 °C 1033.4 hPa West 1.6 km/h 6.4 km/h 92 % 0 mm 0 W/m2
16:55 10.8 °C 9.6 °C 1033.4 hPa Calm   4.8 km/h 92 % 0 mm 0 W/m2
16:56 10.8 °C 9.6 °C 1033.4 hPa Calm   3.2 km/h 92 % 0 mm 0 W/m2
17:01 10.7 °C 9.4 °C 1033.4 hPa WSW 3.2 km/h 6.4 km/h 92 % 0 mm 0 W/m2
17:03 10.7 °C 9.4 °C 1033.4 hPa WSW 3.2 km/h 12.9 km/h 92 % 0 mm 0 W/m2
17:05 10.7 °C 9.6 °C 1033.4 hPa WSW 4.8 km/h 12.9 km/h 93 % 0 mm 0 W/m2
17:10 10.7 °C 9.6 °C 1033.4 hPa West 4.8 km/h 9.7 km/h 93 % 0 mm 0 W/m2
17:11 10.7 °C 9.4 °C 1033.4 hPa West 6.4 km/h 9.7 km/h 92 % 0 mm 0 W/m2
17:16 10.7 °C 9.4 °C 1033.7 hPa WNW 3.2 km/h 8 km/h 92 % 0 mm 0 W/m2
17:19 10.6 °C 9.3 °C 1033.7 hPa WNW 3.2 km/h 8 km/h 92 % 0 mm 0 W/m2
17:21 10.6 °C 9.3 °C 1033.7 hPa WNW 6.4 km/h 9.7 km/h 92 % 0 mm 0 W/m2
17:26 10.6 °C 9.5 °C 1033.7 hPa West 4.8 km/h 8 km/h 93 % 0 mm 0 W/m2
17:31 10.6 °C 9.3 °C 1033.4 hPa West 1.6 km/h 8 km/h 92 % 0 mm 0 W/m2
17:32 10.6 °C 9.3 °C 1033.4 hPa West 1.6 km/h 8 km/h 92 % 0 mm 0 W/m2
17:37 10.6 °C 9.3 °C 1033.4 hPa West 4.8 km/h 9.7 km/h 92 % 0 mm 0 W/m2
17:38 10.5 °C 9.3 °C 1033.4 hPa West 3.2 km/h 9.7 km/h 92 % 0 mm 0 W/m2
17:42 10.4 °C 9.2 °C 1033.4 hPa West 6.4 km/h 9.7 km/h 92 % 0 mm 0 W/m2
17:44 10.4 °C 9.2 °C 1033.4 hPa West 6.4 km/h 9.7 km/h 92 % 0 mm 0 W/m2
17:49 10.4 °C 9.3 °C 1033.4 hPa WNW 4.8 km/h 9.7 km/h 93 % 0 mm 0 W/m2
17:51 10.3 °C 9.2 °C 1033.4 hPa WNW 3.2 km/h 8 km/h 93 % 0 mm 0 W/m2
17:55 10.3 °C 9.2 °C 1033.7 hPa West 1.6 km/h 6.4 km/h 93 % 0 mm 0 W/m2
17:58 10.3 °C 9.2 °C 1033.7 hPa Calm   3.2 km/h 93 % 0 mm 0 W/m2
18:00 10.3 °C 9.2 °C 1033.7 hPa West 1.6 km/h 3.2 km/h 93 % 0 mm 0 W/m2
18:03 10.3 °C 9.2 °C 1033.7 hPa Calm     93 % 0 mm 0 W/m2
18:06 10.3 °C 9.2 °C 1033.7 hPa Calm     93 % 0 mm 0 W/m2
18:09 10.3 °C 9.2 °C 1033.4 hPa WSW 3.2 km/h 8 km/h 93 % 0 mm 0 W/m2
18:14 10.3 °C 9.2 °C 1033.4 hPa WSW 3.2 km/h 8 km/h 93 % 0 mm 0 W/m2
18:15 10.2 °C 9.1 °C 1033.4 hPa WSW 3.2 km/h 8 km/h 93 % 0 mm 0 W/m2
18:17 10.2 °C 9.1 °C 1033.4 hPa WSW 6.4 km/h 11.3 km/h 93 % 0 mm 0 W/m2
18:22 10.3 °C 9.2 °C 1033.4 hPa WSW 11.3 km/h 14.5 km/h 93 % 0 mm 0 W/m2
18:23 10.3 °C 9.2 °C 1033.4 hPa WSW 11.3 km/h 16.1 km/h 93 % 0 mm 0 W/m2
18:24 10.3 °C 9.2 °C 1033.4 hPa WSW 11.3 km/h 16.1 km/h 93 % 0 mm 0 W/m2
18:28 10.3 °C 9.2 °C 1033.4 hPa West 9.7 km/h 16.1 km/h 93 % 0 mm 0 W/m2
18:33 10.3 °C 9.2 °C 1033.4 hPa West 8 km/h 11.3 km/h 93 % 0 mm 0 W/m2
18:35 10.3 °C 9.2 °C 1033.4 hPa WNW 11.3 km/h 17.7 km/h 93 % 0 mm 0 W/m2
18:36 10.3 °C 9.2 °C 1033.4 hPa WNW 9.7 km/h 17.7 km/h 93 % 0 mm 0 W/m2
18:41 10.3 °C 9.2 °C 1033.4 hPa WNW 12.9 km/h 19.3 km/h 93 % 0 mm 0 W/m2
18:46 10.3 °C 9.2 °C 1033.4 hPa WNW 8 km/h 14.5 km/h 93 % 0 mm 0 W/m2
18:51 10.2 °C 9.1 °C 1033.4 hPa WNW 11.3 km/h 16.1 km/h 93 % 0 mm 0 W/m2
18:52 10.2 °C 9.1 °C 1033.4 hPa WNW 11.3 km/h 16.1 km/h 93 % 0 mm 0 W/m2
18:57 10.2 °C 9.1 °C 1033.4 hPa WNW 8 km/h 11.3 km/h 93 % 0 mm 0 W/m2
19:00 10.2 °C 9.1 °C 1033.4 hPa WNW 8 km/h 12.9 km/h 93 % 0 mm 0 W/m2
19:04 10.2 °C 9.1 °C 1033.4 hPa NW 4.8 km/h 9.7 km/h 93 % 0 mm 0 W/m2
19:07 10.2 °C 9.1 °C 1033.4 hPa WNW 9.7 km/h 14.5 km/h 93 % 0 mm 0 W/m2
19:12 10.1 °C 9 °C 1033.7 hPa WNW 8 km/h 12.9 km/h 93 % 0 mm 0 W/m2
19:13 10.1 °C 9 °C 1033.7 hPa WNW 6.4 km/h 12.9 km/h 93 % 0 mm 0 W/m2
19:18 10.1 °C 9 °C 1033.7 hPa WNW 9.7 km/h 12.9 km/h 93 % 0 mm 0 W/m2
19:23 10.1 °C 9 °C 1033.7 hPa NW 9.7 km/h 14.5 km/h 93 % 0 mm 0 W/m2
19:25 10.1 °C 9 °C 1033.7 hPa WNW 8 km/h 12.9 km/h 93 % 0 mm 0 W/m2
19:30 10.1 °C 9.2 °C 1033.7 hPa WNW 11.3 km/h 14.5 km/h 94 % 0 mm 0 W/m2
19:31 10.1 °C 9.2 °C 1033.7 hPa WNW 11.3 km/h 16.1 km/h 94 % 0 mm 0 W/m2
19:36 10.1 °C 9 °C 1033.7 hPa WNW 8 km/h 12.9 km/h 93 % 0 mm 0 W/m2
19:37 10 °C 8.9 °C 1033.7 hPa WNW 8 km/h 12.9 km/h 93 % 0 mm 0 W/m2
19:39 10 °C 8.9 °C 1033.7 hPa WNW 8 km/h 12.9 km/h 93 % 0 mm 0 W/m2
19:42 10 °C 9.1 °C 1033.7 hPa WNW 6.4 km/h 9.7 km/h 94 % 0 mm 0 W/m2
19:48 10 °C 8.9 °C 1033.7 hPa WNW 9.7 km/h 12.9 km/h 93 % 0 mm 0 W/m2
19:50 10 °C 9.1 °C 1033.7 hPa WNW 9.7 km/h 14.5 km/h 94 % 0 mm 0 W/m2
19:55 10 °C 9.1 °C 1033.7 hPa WNW 11.3 km/h 14.5 km/h 94 % 0 mm 0 W/m2
20:00 10.1 °C 9.2 °C 1033.7 hPa WNW 11.3 km/h 22.5 km/h 94 % 0 mm 0 W/m2
20:02 10.1 °C 9 °C 1033.7 hPa WNW 12.9 km/h 19.3 km/h 93 % 0 mm 0 W/m2
20:06 10.1 °C 9 °C 1033.7 hPa NW 11.3 km/h 17.7 km/h 93 % 0 mm 0 W/m2
20:12 10.1 °C 9 °C 1033.7 hPa WNW 14.5 km/h 20.9 km/h 93 % 0 mm 0 W/m2
20:17 10.2 °C 9.1 °C 1033.7 hPa WNW 11.3 km/h 17.7 km/h 93 % 0 mm 0 W/m2
20:18 10.2 °C 9.1 °C 1033.7 hPa WNW 12.9 km/h 17.7 km/h 93 % 0 mm 0 W/m2
20:20 10.2 °C 9.1 °C 1033.7 hPa WNW 11.3 km/h 20.9 km/h 93 % 0 mm 0 W/m2
20:25 10.2 °C 8.9 °C 1033.7 hPa WNW 14.5 km/h 20.9 km/h 92 % 0 mm 0 W/m2
20:26 10.2 °C 8.9 °C 1033.7 hPa WNW 14.5 km/h 20.9 km/h 92 % 0 mm 0 W/m2
20:28 10.2 °C 8.9 °C 1033.7 hPa WNW 12.9 km/h 19.3 km/h 92 % 0 mm 0 W/m2
20:33 10.2 °C 8.9 °C 1033.7 hPa WNW 11.3 km/h 16.1 km/h 92 % 0 mm 0 W/m2
20:38 10.2 °C 8.9 °C 1033.7 hPa WNW 9.7 km/h 14.5 km/h 92 % 0 mm 0 W/m2
20:41 10.2 °C 8.9 °C 1033.7 hPa WNW 11.3 km/h 16.1 km/h 92 % 0 mm 0 W/m2
20:46 10.2 °C 8.8 °C 1033.7 hPa WNW 9.7 km/h 12.9 km/h 91 % 0 mm 0 W/m2
20:47 10.2 °C 8.8 °C 1033.7 hPa WNW 9.7 km/h 12.9 km/h 91 % 0 mm 0 W/m2
20:52 10.1 °C 8.7 °C 1034.1 hPa WNW 11.3 km/h 16.1 km/h 91 % 0 mm 0 W/m2
20:57 10.1 °C 8.7 °C 1034.1 hPa WNW 11.3 km/h 16.1 km/h 91 % 0 mm 0 W/m2
20:58 10.1 °C 8.7 °C 1034.1 hPa WNW 11.3 km/h 16.1 km/h 91 % 0 mm 0 W/m2
21:03 10.1 °C 8.7 °C 1034.1 hPa WNW 11.3 km/h 17.7 km/h 91 % 0 mm 0 W/m2
21:05 10.1 °C 8.7 °C 1034.1 hPa WNW 9.7 km/h 14.5 km/h 91 % 0 mm 0 W/m2
21:08 10.1 °C 8.7 °C 1034.1 hPa WNW 12.9 km/h 17.7 km/h 91 % 0 mm 0 W/m2
21:14 10.2 °C 8.8 °C 1034.1 hPa WNW 11.3 km/h 16.1 km/h 91 % 0 mm 0 W/m2
21:16 10.2 °C 8.8 °C 1034.1 hPa WNW 11.3 km/h 19.3 km/h 91 % 0 mm 0 W/m2
21:21 10.2 °C 8.6 °C 1034.1 hPa WNW 9.7 km/h 14.5 km/h 90 % 0 mm 0 W/m2
21:23 10.2 °C 8.6 °C 1034.1 hPa WNW 9.7 km/h 14.5 km/h 90 % 0 mm 0 W/m2
21:27 10.2 °C 8.6 °C 1034.1 hPa WNW 8 km/h 12.9 km/h 90 % 0 mm 0 W/m2
21:29 10.2 °C 8.6 °C 1034.1 hPa WNW 9.7 km/h 14.5 km/h 90 % 0 mm 0 W/m2
21:34 10.2 °C 8.6 °C 1034.1 hPa NW 11.3 km/h 14.5 km/h 90 % 0 mm 0 W/m2
21:35 10.2 °C 8.6 °C 1034.1 hPa NW 11.3 km/h 14.5 km/h 90 % 0 mm 0 W/m2
21:40 10.2 °C 8.6 °C 1034.1 hPa WNW 11.3 km/h 19.3 km/h 90 % 0 mm 0 W/m2
21:41 10.2 °C 8.6 °C 1033.7 hPa WNW 11.3 km/h 17.7 km/h 90 % 0 mm 0 W/m2
21:43 10.2 °C 8.6 °C 1033.7 hPa WNW 11.3 km/h 17.7 km/h 90 % 0 mm 0 W/m2
21:47 10.3 °C 8.6 °C 1033.7 hPa NW 11.3 km/h 16.1 km/h 89 % 0 mm 0 W/m2
21:53 10.3 °C 8.6 °C 1033.7 hPa WNW 8 km/h 12.9 km/h 89 % 0 mm 0 W/m2
21:54 10.3 °C 8.6 °C 1033.7 hPa WNW 8 km/h 11.3 km/h 89 % 0 mm 0 W/m2
21:59 10.3 °C 8.6 °C 1034.1 hPa West 9.7 km/h 11.3 km/h 89 % 0 mm 0 W/m2
22:01 10.3 °C 8.6 °C 1033.7 hPa WNW 8 km/h 11.3 km/h 89 % 0 mm 0 W/m2
22:06 10.3 °C 8.6 °C 1034.1 hPa WNW 4.8 km/h 8 km/h 89 % 0 mm 0 W/m2
22:11 10.3 °C 8.6 °C 1034.1 hPa Calm   3.2 km/h 89 % 0 mm 0 W/m2
22:12 10.3 °C 8.6 °C 1034.1 hPa Calm   3.2 km/h 89 % 0 mm 0 W/m2
22:17 10.2 °C 8.4 °C 1034.1 hPa West 1.6 km/h 3.2 km/h 89 % 0 mm 0 W/m2
22:22 10.2 °C 8.3 °C 1034.1 hPa West 1.6 km/h 3.2 km/h 88 % 0 mm 0 W/m2
22:23 10.2 °C 8.4 °C 1034.1 hPa West 1.6 km/h 3.2 km/h 89 % 0 mm 0 W/m2
22:29 10.1 °C 8.4 °C 1034.1 hPa Calm     89 % 0 mm 0 W/m2
22:30 10.1 °C 8.4 °C 1034.1 hPa Calm     89 % 0 mm 0 W/m2
22:36 10 °C 8.3 °C 1034.4 hPa Calm     89 % 0 mm 0 W/m2
22:38 9.9 °C 8.2 °C 1034.4 hPa Calm     89 % 0 mm 0 W/m2
22:43 9.9 °C 8.2 °C 1034.1 hPa Calm     89 % 0 mm 0 W/m2
22:48 9.8 °C 8.2 °C 1034.1 hPa NNE 1.6 km/h 6.4 km/h 90 % 0 mm 0 W/m2
22:49 9.8 °C 8.2 °C 1034.1 hPa NE 4.8 km/h 6.4 km/h 90 % 0 mm 0 W/m2
22:54 9.8 °C 8.2 °C 1034.1 hPa NE 1.6 km/h 4.8 km/h 90 % 0 mm 0 W/m2
22:56 9.7 °C 8.1 °C 1034.1 hPa NE 3.2 km/h 6.4 km/h 90 % 0 mm 0 W/m2
22:59 9.7 °C 8.1 °C 1034.1 hPa Calm   3.2 km/h 90 % 0 mm 0 W/m2
23:02 9.7 °C 8.1 °C 1034.1 hPa Calm     90 % 0 mm 0 W/m2
23:07 9.7 °C 8.1 °C 1034.1 hPa Calm     90 % 0 mm 0 W/m2
23:12 9.6 °C 8.1 °C 1034.1 hPa Calm     90 % 0 mm 0 W/m2
23:17 9.6 °C 8.1 °C 1034.4 hPa Calm     90 % 0 mm 0 W/m2
23:18 9.6 °C 8.1 °C 1034.1 hPa Calm     90 % 0 mm 0 W/m2
23:23 9.4 °C 7.8 °C 1034.4 hPa Calm     90 % 0 mm 0 W/m2
23:24 9.4 °C 7.8 °C 1034.4 hPa Calm     90 % 0 mm 0 W/m2
23:28 9.4 °C 7.8 °C 1034.4 hPa Calm     90 % 0 mm 0 W/m2
23:31 9.3 °C 7.7 °C 1034.4 hPa Calm     90 % 0 mm 0 W/m2
23:37 9.3 °C 7.9 °C 1034.4 hPa Calm     91 % 0 mm 0 W/m2
23:38 9.2 °C 7.8 °C 1034.4 hPa Calm     91 % 0 mm 0 W/m2
23:43 9.2 °C 7.8 °C 1034.1 hPa Calm     91 % 0 mm 0 W/m2
23:46 9.2 °C 7.8 °C 1034.1 hPa Calm     91 % 0 mm 0 W/m2
23:47 9.2 °C 7.8 °C 1034.1 hPa Calm     91 % 0 mm 0 W/m2
23:57 9.1 °C 7.7 °C 1034.1 hPa Calm     91 % 0 mm 0 W/m2
23:58 9.1 °C 7.7 °C 1034.1 hPa Calm     91 % 0 mm 0 W/m2
Delerius-Weather
Compliments of Weather Underground - 3 mb

Data updates at regular intervals.